createdAt,value
2019-04-23T00:01:07.845Z,35.12
2019-04-23T00:03:28.736Z,35.11
2019-04-23T00:06:06.688Z,35.07
2019-04-23T00:08:36.475Z,35.06
2019-04-23T00:11:08.790Z,35.05
2019-04-23T00:13:39.255Z,35.12
2019-04-23T00:21:26.625Z,35.14
2019-04-23T00:24:01.483Z,35.02
2019-04-23T00:28:58.925Z,35.21
2019-04-23T00:31:29.565Z,35.23
2019-04-23T00:33:57.271Z,34.94
2019-04-23T00:36:32.073Z,35.12
2019-04-23T00:38:54.379Z,35.22
2019-04-23T00:46:27.934Z,35.05
2019-04-23T00:49:05.859Z,35.12
2019-04-23T00:51:30.269Z,35.30
2019-04-23T00:54:02.247Z,35.38
2019-04-23T00:56:42.043Z,35.36
2019-04-23T00:59:00.751Z,35.20
2019-04-23T01:04:17.339Z,35.20
2019-04-23T01:06:30.727Z,35.15
2019-04-23T01:09:03.858Z,35.13
2019-04-23T01:11:35.715Z,35.04
2019-04-23T01:14:08.171Z,35.15
2019-04-23T01:16:32.843Z,35.19
2019-04-23T01:19:12.217Z,35.16
2019-04-23T01:24:29.712Z,35.10
2019-04-23T01:27:53.088Z,35.04
2019-04-23T01:30:19.823Z,35.09
2019-04-23T01:32:51.820Z,35.07
2019-04-23T01:35:18.931Z,35.04
2019-04-23T01:37:47.768Z,35.10
2019-04-23T01:40:27.411Z,35.12
2019-04-23T01:42:49.287Z,35.13
2019-04-23T01:45:24.584Z,35.10
2019-04-23T01:47:58.335Z,35.09
2019-04-23T01:50:27.730Z,35.04
2019-04-23T01:53:00.793Z,35.08
2019-04-23T01:55:28.029Z,34.94
2019-04-23T01:58:18.972Z,35.06
2019-04-23T02:00:30.610Z,35.08
2019-04-23T02:05:39.712Z,35.12
2019-04-23T02:08:03.539Z,35.15
2019-04-23T02:10:51.253Z,35.16
2019-04-23T02:13:01.799Z,35.10
2019-04-23T02:15:36.290Z,35.10
2019-04-23T02:18:07.973Z,35.11
2019-04-23T02:20:43.018Z,35.08
2019-04-23T02:23:38.899Z,35.03
2019-04-23T02:26:04.781Z,35.05
2019-04-23T02:28:39.184Z,35.02
2019-04-23T02:36:08.316Z,35.11
2019-04-23T02:41:19.841Z,35.10
2019-04-23T02:43:44.260Z,35.10
2019-04-23T02:46:09.908Z,35.11
2019-04-23T02:48:52.484Z,35.06
2019-04-23T02:51:21.647Z,35.07
2019-04-23T02:56:34.730Z,35.06
2019-04-23T02:58:57.696Z,35.08
2019-04-23T03:06:29.963Z,35.16
2019-04-23T03:11:43.199Z,35.15
2019-04-23T03:20:01.526Z,35.13
2019-04-23T03:22:44.544Z,35.18
2019-04-23T03:27:50.984Z,35.00
2019-04-23T03:30:52.469Z,35.09
2019-04-23T03:35:09.525Z,35.09
2019-04-23T03:38:08.293Z,35.10
2019-04-23T03:40:19.304Z,35.07
2019-04-23T03:43:14.491Z,35.15
2019-04-23T03:48:08.012Z,35.15
2019-04-23T03:50:43.586Z,35.13
2019-04-23T03:53:20.815Z,35.20
2019-04-23T03:55:37.104Z,35.22
2019-04-23T03:58:15.983Z,35.31
2019-04-23T04:00:37.475Z,35.30
2019-04-23T04:08:16.117Z,35.39
2019-04-23T04:10:44.735Z,35.45
2019-04-23T04:13:15.927Z,35.48
2019-04-23T04:21:01.135Z,35.59
2019-04-23T04:23:24.237Z,35.65
2019-04-23T04:25:49.941Z,35.68
2019-04-23T04:28:17.614Z,35.72
2019-04-23T04:30:54.369Z,35.78
2019-04-23T04:38:42.441Z,35.87
2019-04-23T04:46:05.324Z,35.98
2019-04-23T04:48:30.550Z,35.98
2019-04-23T04:51:00.338Z,36.02
2019-04-23T04:56:07.578Z,36.10
2019-04-23T04:58:32.603Z,36.13
2019-04-23T05:08:37.223Z,36.29
2019-04-23T05:11:13.004Z,36.32
2019-04-23T05:13:41.291Z,36.38
2019-04-23T05:16:07.677Z,36.42
2019-04-23T05:21:43.848Z,36.46
2019-04-23T05:23:50.486Z,36.51
2019-04-23T05:26:25.182Z,36.62
2019-04-23T05:31:19.026Z,36.75
2019-04-23T05:33:57.214Z,36.78
2019-04-23T05:41:36.862Z,37.65
2019-04-23T05:43:57.254Z,38.19
2019-04-23T05:46:33.133Z,38.38
2019-04-23T05:51:27.919Z,39.66
2019-04-23T05:53:58.314Z,39.84
2019-04-23T05:56:30.812Z,39.69
2019-04-23T05:59:06.670Z,39.58
2019-04-23T06:01:49.277Z,39.54
2019-04-23T06:04:11.724Z,39.51
2019-04-23T06:09:09.168Z,39.05
2019-04-23T06:11:45.223Z,38.99
2019-04-23T06:21:47.480Z,39.31
2019-04-23T06:24:19.642Z,39.78
2019-04-23T06:29:19.418Z,40.18
2019-04-23T06:31:46.006Z,40.30
2019-04-23T06:34:16.644Z,40.71
2019-04-23T06:39:06.686Z,40.09
2019-04-23T06:41:44.841Z,39.59
2019-04-23T06:44:30.781Z,39.31
2019-04-23T06:47:05.742Z,39.05
2019-04-23T06:49:30.517Z,38.98
2019-04-23T06:54:37.877Z,38.38
2019-04-23T06:57:10.240Z,38.48
2019-04-23T07:00:29.502Z,38.41
2019-04-23T07:02:06.229Z,38.41
2019-04-23T07:04:34.323Z,38.59
2019-04-23T07:07:45.202Z,38.69
2019-04-23T07:09:26.299Z,38.71
2019-04-23T07:12:07.205Z,38.77
2019-04-23T07:14:44.081Z,38.79
2019-04-23T07:17:05.361Z,38.79
2019-04-23T07:22:12.961Z,39.07
2019-04-23T07:24:41.951Z,38.77
2019-04-23T07:27:11.754Z,38.55
2019-04-23T07:29:41.713Z,38.26
2019-04-23T07:32:29.115Z,37.90
2019-04-23T07:34:51.199Z,37.71
2019-04-23T07:37:15.457Z,37.19
2019-04-23T07:40:22.992Z,37.34
2019-04-23T07:42:51.283Z,37.36
2019-04-23T07:45:36.058Z,37.23
2019-04-23T07:50:42.451Z,37.08
2019-04-23T07:53:18.891Z,37.01
2019-04-23T08:08:15.665Z,36.59
2019-04-23T08:11:16.102Z,36.52
2019-04-23T08:13:33.647Z,36.51
2019-04-23T08:15:57.913Z,36.67
2019-04-23T08:18:29.653Z,36.66
2019-04-23T08:20:55.599Z,36.59
2019-04-23T08:23:51.573Z,36.42
2019-04-23T08:29:03.616Z,36.32
2019-04-23T08:31:41.482Z,36.54
2019-04-23T08:34:27.327Z,36.58
2019-04-23T08:36:34.226Z,36.46
2019-04-23T08:39:02.098Z,36.42
2019-04-23T08:41:49.982Z,36.56
2019-04-23T08:44:16.826Z,36.47
2019-04-23T08:49:29.392Z,36.16
2019-04-23T08:52:00.602Z,36.29
2019-04-23T08:54:42.997Z,36.11
2019-04-23T08:57:05.161Z,35.85
2019-04-23T09:02:18.304Z,35.87
2019-04-23T09:07:15.591Z,35.77
2019-04-23T09:09:45.572Z,35.72
2019-04-23T09:14:38.619Z,35.93
2019-04-23T09:17:11.351Z,35.79
2019-04-23T09:19:42.862Z,35.90
2019-04-23T09:22:14.590Z,35.84
2019-04-23T09:24:44.827Z,35.69
2019-04-23T09:27:16.307Z,35.67
2019-04-23T09:29:45.696Z,35.70
2019-04-23T09:32:26.648Z,35.58
2019-04-23T09:35:30.924Z,35.75
2019-04-23T09:41:03.055Z,35.15
2019-04-23T09:43:29.592Z,35.37
2019-04-23T09:46:06.466Z,35.59
2019-04-23T09:48:48.584Z,35.76
2019-04-23T09:51:07.852Z,35.88
2019-04-23T09:53:33.897Z,36.17
2019-04-23T09:56:06.874Z,35.88
2019-04-23T09:58:35.792Z,35.88
2019-04-23T10:03:41.690Z,35.47
2019-04-23T10:06:06.258Z,35.36
2019-04-23T10:08:35.661Z,35.25
2019-04-23T10:10:59.790Z,35.37
2019-04-23T10:13:29.686Z,35.36
2019-04-23T10:16:00.111Z,34.96
2019-04-23T10:18:30.925Z,34.88
2019-04-23T10:21:01.385Z,34.98
2019-04-23T10:23:31.537Z,34.94
2019-04-23T10:26:01.844Z,34.63
2019-04-23T10:28:40.290Z,34.64
2019-04-23T10:31:09.621Z,34.80
2019-04-23T10:33:39.948Z,34.95
2019-04-23T10:36:13.068Z,34.85
2019-04-23T10:38:41.585Z,35.01
2019-04-23T10:41:11.903Z,35.01
2019-04-23T10:43:44.397Z,35.18
2019-04-23T10:47:08.166Z,35.17
2019-04-23T10:49:53.566Z,35.38
2019-04-23T10:54:41.259Z,35.55
2019-04-23T11:07:28.565Z,35.55
2019-04-23T11:13:17.737Z,35.46
2019-04-23T11:15:26.694Z,36.01
2019-04-23T11:20:36.908Z,35.82
2019-04-23T11:27:52.408Z,36.31
2019-04-23T11:33:04.985Z,35.79
2019-04-23T11:35:31.307Z,35.71
2019-04-23T11:38:24.863Z,35.43
2019-04-23T11:42:57.656Z,34.71
2019-04-23T11:45:38.772Z,34.63
2019-04-23T11:52:56.039Z,34.41
2019-04-23T11:55:39.211Z,34.59
2019-04-23T12:00:42.739Z,34.94
2019-04-23T12:03:02.705Z,34.95
2019-04-23T12:06:15.329Z,35.00
2019-04-23T12:09:07.541Z,35.00
2019-04-23T12:12:31.191Z,34.87
2019-04-23T12:14:37.282Z,34.72
2019-04-23T12:19:52.931Z,35.01
2019-04-23T12:22:15.192Z,35.10
2019-04-23T12:25:00.137Z,35.07
2019-04-23T12:27:06.172Z,34.98
2019-04-23T12:29:42.340Z,34.95
2019-04-23T12:42:57.055Z,35.13
2019-04-23T12:50:48.733Z,35.99
2019-04-23T12:55:35.866Z,35.74
2019-04-23T12:57:52.172Z,35.10
2019-04-23T13:02:50.931Z,35.91
2019-04-23T13:05:31.184Z,35.93
2019-04-23T13:07:55.527Z,35.71
2019-04-23T13:13:11.651Z,35.85
2019-04-23T13:18:15.096Z,36.29
2019-04-23T13:20:27.576Z,35.85
2019-04-23T13:23:16.496Z,35.71
2019-04-23T13:25:52.825Z,35.75
2019-04-23T13:30:54.280Z,36.12
2019-04-23T13:33:30.718Z,36.01
2019-04-23T13:38:28.606Z,36.37
2019-04-23T13:40:57.129Z,36.06
2019-04-23T13:43:31.806Z,36.07
2019-04-23T13:48:18.360Z,35.22
2019-04-23T13:53:37.838Z,35.18
2019-04-23T13:55:53.044Z,35.25
2019-04-23T14:03:39.700Z,34.74
2019-04-23T14:06:19.867Z,34.54
2019-04-23T14:11:22.066Z,34.09
2019-04-23T14:13:56.259Z,34.22
2019-04-23T14:16:21.266Z,33.93
2019-04-23T14:21:20.381Z,34.55
2019-04-23T14:36:39.315Z,34.11
2019-04-23T14:38:49.475Z,33.83
2019-04-23T14:41:33.902Z,33.81
2019-04-23T14:48:58.299Z,33.73
2019-04-23T14:51:46.766Z,33.47
2019-04-23T14:53:53.817Z,33.64
2019-04-23T15:01:36.182Z,33.82
2019-04-23T15:04:02.017Z,34.02
2019-04-23T15:09:19.675Z,33.55
2019-04-23T15:12:06.136Z,33.75
2019-04-23T15:14:29.522Z,33.93
2019-04-23T15:19:40.390Z,34.02
2019-04-23T15:22:09.979Z,33.77
2019-04-23T15:29:24.888Z,33.88
2019-04-23T15:32:13.958Z,34.03
2019-04-23T15:34:32.737Z,34.10
2019-04-23T15:44:41.795Z,33.42
2019-04-23T15:47:19.973Z,33.64
2019-04-23T15:49:49.230Z,33.73
2019-04-23T15:52:10.603Z,33.76
2019-04-23T15:54:48.335Z,33.97
2019-04-23T15:57:28.906Z,33.92
2019-04-23T15:59:47.905Z,33.93
2019-04-23T16:01:49.433Z,33.84
2019-04-23T16:04:20.116Z,33.91
2019-04-23T16:06:49.818Z,33.76
2019-04-23T16:09:46.197Z,33.83
2019-04-23T16:12:10.213Z,33.75
2019-04-23T16:15:11.448Z,33.84
2019-04-23T16:22:51.091Z,33.70
2019-04-23T16:25:12.951Z,33.66
2019-04-23T16:27:48.994Z,33.46
2019-04-23T16:35:51.682Z,33.50
2019-04-23T16:40:54.667Z,33.32
2019-04-23T16:45:53.569Z,33.26
2019-04-23T16:48:33.865Z,33.54
2019-04-23T16:53:31.516Z,33.59
2019-04-23T16:55:59.819Z,33.72
2019-04-23T17:03:32.000Z,33.79
2019-04-23T17:06:08.568Z,33.74
2019-04-23T17:08:47.852Z,33.88
2019-04-23T17:11:09.657Z,33.97
2019-04-23T17:16:06.775Z,33.89
2019-04-23T17:18:31.875Z,34.13
2019-04-23T17:20:56.320Z,34.08
2019-04-23T17:23:38.837Z,34.29
2019-04-23T17:26:07.090Z,34.35
2019-04-23T17:28:29.553Z,34.29
2019-04-23T17:31:27.954Z,34.35
2019-04-23T17:33:44.661Z,34.42
2019-04-23T17:39:50.068Z,34.59
2019-04-23T17:45:03.611Z,34.81
2019-04-23T17:47:28.534Z,34.88
2019-04-23T17:50:10.750Z,34.86
2019-04-23T17:52:35.122Z,34.81
2019-04-23T17:55:09.271Z,34.81
2019-04-23T17:57:36.993Z,34.80
2019-04-23T18:05:14.711Z,35.12
2019-04-23T18:12:46.939Z,35.25
2019-04-23T18:15:13.067Z,35.17
2019-04-23T18:17:45.253Z,35.20
2019-04-23T18:20:19.613Z,35.20
2019-04-23T18:22:55.322Z,35.33
2019-04-23T18:25:26.196Z,35.50
2019-04-23T18:31:06.216Z,35.77
2019-04-23T18:36:05.299Z,35.99
2019-04-23T18:41:07.082Z,36.09
2019-04-23T18:43:34.202Z,36.17
2019-04-23T18:48:48.716Z,36.28
2019-04-23T18:56:12.402Z,36.32
2019-04-23T18:58:54.666Z,36.41
2019-04-23T19:01:13.947Z,36.45
2019-04-23T19:03:58.348Z,36.50
2019-04-23T19:06:32.717Z,36.54
2019-04-23T19:09:16.360Z,36.59
2019-04-23T19:12:07.157Z,36.64
2019-04-23T19:14:35.199Z,36.68
2019-04-23T19:17:29.096Z,36.74
2019-04-23T19:19:35.105Z,36.71
2019-04-23T19:22:15.011Z,36.80
2019-04-23T19:24:34.572Z,36.88
2019-04-23T19:27:12.321Z,36.92
2019-04-23T19:29:39.631Z,36.92
2019-04-23T19:32:06.643Z,36.97
2019-04-23T19:39:36.662Z,36.95
2019-04-23T19:44:43.871Z,37.14
2019-04-23T19:47:09.424Z,37.16
2019-04-23T19:49:37.083Z,37.19
2019-04-23T19:52:03.516Z,37.20
2019-04-23T19:57:19.269Z,37.28
2019-04-23T20:02:45.163Z,37.33
2019-04-23T20:12:14.004Z,37.47
2019-04-23T20:14:47.377Z,37.46
2019-04-23T20:22:27.389Z,37.51
2019-04-23T20:25:18.613Z,37.57
2019-04-23T20:27:26.469Z,37.57
2019-04-23T20:33:00.592Z,37.64
2019-04-23T20:35:16.627Z,37.71
2019-04-23T20:38:18.987Z,37.73
2019-04-23T20:40:30.339Z,37.74
2019-04-23T20:42:52.615Z,37.77
2019-04-23T20:45:33.840Z,37.84
2019-04-23T20:47:57.500Z,37.86
2019-04-23T20:50:27.656Z,37.83
2019-04-23T20:52:51.818Z,37.85
2019-04-23T20:55:38.948Z,37.96
2019-04-23T20:58:09.730Z,37.94
2019-04-23T21:01:00.405Z,37.95
2019-04-23T21:03:47.335Z,37.84
2019-04-23T21:06:01.866Z,37.92
2019-04-23T21:08:45.101Z,38.04
2019-04-23T21:14:01.761Z,38.00
2019-04-23T21:16:13.129Z,38.04
2019-04-23T21:18:41.193Z,38.05
2019-04-23T21:23:38.741Z,38.10
2019-04-23T21:26:08.494Z,38.15
2019-04-23T21:28:40.134Z,38.08
2019-04-23T21:33:46.022Z,38.13
2019-04-23T21:36:44.451Z,38.10
2019-04-23T21:40:14.085Z,38.09
2019-04-23T21:45:11.038Z,38.22
2019-04-23T21:47:51.800Z,38.14
2019-04-23T21:50:19.486Z,38.09
2019-04-23T21:52:41.096Z,38.16
2019-04-23T21:55:11.263Z,38.22
2019-04-23T21:57:53.586Z,38.16
2019-04-23T22:00:39.316Z,38.16
2019-04-23T22:05:26.881Z,38.16
2019-04-23T22:07:57.797Z,38.25
2019-04-23T22:10:17.797Z,38.19
2019-04-23T22:13:05.270Z,38.27
2019-04-23T22:15:22.247Z,38.31
2019-04-23T22:20:25.998Z,38.35
2019-04-23T22:25:21.927Z,38.27
2019-04-23T22:27:55.060Z,38.17
2019-04-23T22:33:21.643Z,38.42
2019-04-23T22:35:57.750Z,38.38
2019-04-23T22:38:18.845Z,38.49
2019-04-23T22:40:49.684Z,38.51
2019-04-23T22:43:23.174Z,38.47
2019-04-23T22:48:13.714Z,38.54
2019-04-23T22:50:56.683Z,38.54
2019-04-23T22:53:20.078Z,38.58
2019-04-23T22:58:22.967Z,38.52
2019-04-23T23:01:13.605Z,38.63
2019-04-23T23:03:36.486Z,38.58
2019-04-23T23:08:50.313Z,38.57
2019-04-23T23:11:22.812Z,38.61
2019-04-23T23:14:10.101Z,38.63
2019-04-23T23:16:28.874Z,38.60
2019-04-23T23:19:03.921Z,38.73
2019-04-23T23:21:30.886Z,38.78
2019-04-23T23:24:06.298Z,38.78
2019-04-23T23:26:48.304Z,38.64
2019-04-23T23:29:02.327Z,38.62
2019-04-23T23:31:37.179Z,38.74
2019-04-23T23:36:40.453Z,38.75
2019-04-23T23:41:46.910Z,38.64
2019-04-23T23:44:29.275Z,38.68
2019-04-23T23:49:13.601Z,38.77
2019-04-23T23:51:46.573Z,38.70
2019-04-23T23:54:15.181Z,38.62
2019-04-23T23:56:49.766Z,38.72
2019-04-23T23:59:17.985Z,38.83
